Time;durP1;ratioP1;P1;durP2;ratioP2;P2;SDS_P1;SDS_P2;PMS_P1;PMS_P2;Temp;Humidity;BMP_temperature;BMP_pressure;BME280_temperature;BME280_humidity;BME280_pressure;Samples;Min_cycle;Max_cycle;Signal;HPM_P1;HPM_P2
2022/08/04 00:00:12;;;;;;;411.35;276.52;;;;;;;;;;4989459;28;20214;-51
2022/08/04 00:02:38;;;;;;;430.15;283.60;;;;;;;;;;4986619;28;20216;-51
2022/08/04 00:05:05;;;;;;;407.92;274.48;;;;;;;;;;4996633;28;20911;-51
2022/08/04 00:07:49;;;;;;;388.00;260.85;;;;;;;;;;4995783;28;20225;-51
2022/08/04 00:10:16;;;;;;;485.77;319.73;;;;;;;;;;4986996;28;20657;-51
2022/08/04 00:12:46;;;;;;;400.20;269.35;;;;;;;;;;4993537;28;20256;-51
2022/08/04 00:15:14;;;;;;;433.48;293.20;;;;;;;;;;4984699;28;20213;-51
2022/08/04 00:17:44;;;;;;;416.35;277.23;;;;;;;;;;4993992;28;20582;-51
2022/08/04 00:20:12;;;;;;;448.83;292.98;;;;;;;;;;4986982;28;20642;-51
2022/08/04 00:22:39;;;;;;;409.85;277.25;;;;;;;;;;4995210;28;20826;-51
2022/08/04 00:25:05;;;;;;;427.65;287.85;;;;;;;;;;4993816;28;20184;-51
2022/08/04 00:27:32;;;;;;;405.48;274.80;;;;;;;;;;4997320;28;20482;-51
2022/08/04 00:29:58;;;;;;;424.15;280.15;;;;;;;;;;4997799;28;20216;-51
2022/08/04 00:32:27;;;;;;;417.02;268.48;;;;;;;;;;4997828;28;20791;-51
2022/08/04 00:34:54;;;;;;;455.80;293.23;;;;;;;;;;4992526;28;20224;-51
2022/08/04 00:37:21;;;;;;;435.48;285.55;;;;;;;;;;4989768;28;20237;-51
2022/08/04 00:39:48;;;;;;;418.75;263.33;;;;;;;;;;4995095;28;20185;-51
2022/08/04 00:42:28;;;;;;;409.55;263.48;;;;;;;;;;4990719;28;20220;-51
2022/08/04 00:45:13;;;;;;;458.95;299.17;;;;;;;;;;4992725;28;20228;-51
2022/08/04 00:47:48;;;;;;;418.60;275.58;;;;;;;;;;4993760;28;20547;-51
2022/08/04 00:50:32;;;;;;;458.00;293.98;;;;;;;;;;4987125;28;20232;-51
2022/08/04 00:53:23;;;;;;;423.35;278.55;;;;;;;;;;4990055;28;20225;-51
2022/08/04 00:55:57;;;;;;;448.50;291.52;;;;;;;;;;4984915;28;20228;-51
2022/08/04 00:58:28;;;;;;;404.77;272.52;;;;;;;;;;4990684;28;20228;-51
2022/08/04 01:01:05;;;;;;;392.83;256.77;;;;;;;;;;4994667;28;20598;-51
2022/08/04 01:03:50;;;;;;;403.23;265.48;;;;;;;;;;4993099;28;20225;-51
2022/08/04 01:06:16;;;;;;;425.60;279.42;;;;;;;;;;4993496;28;20706;-51
2022/08/04 01:08:55;;;;;;;433.73;281.13;;;;;;;;;;4988338;28;20336;-51
2022/08/04 01:11:23;;;;;;;408.58;264.77;;;;;;;;;;4990173;28;20228;-51
2022/08/04 01:13:56;;;;;;;410.98;266.75;;;;;;;;;;5002277;28;20798;-51
2022/08/04 01:16:24;;;;;;;416.38;273.50;;;;;;;;;;4997286;28;20217;-51
2022/08/04 01:18:59;;;;;;;420.95;275.73;;;;;;;;;;4996118;28;20637;-51
2022/08/04 01:21:49;;;;;;;412.98;270.52;;;;;;;;;;4995877;28;20216;-51
2022/08/04 01:24:25;;;;;;;420.17;270.55;;;;;;;;;;4993815;28;20236;-50
2022/08/04 01:26:57;;;;;;;495.58;310.58;;;;;;;;;;4987935;28;20267;-50
2022/08/04 01:29:26;;;;;;;408.48;269.33;;;;;;;;;;4992879;28;20227;-50
2022/08/04 01:31:58;;;;;;;418.90;275.95;;;;;;;;;;4991053;28;20213;-50
2022/08/04 01:34:27;;;;;;;402.38;267.45;;;;;;;;;;5000226;28;20217;-50
2022/08/04 01:37:05;;;;;;;458.42;291.35;;;;;;;;;;4990540;28;20614;-50
2022/08/04 01:39:41;;;;;;;527.42;329.58;;;;;;;;;;4986999;28;20619;-50
2022/08/04 01:42:11;;;;;;;420.25;272.77;;;;;;;;;;4991142;28;20562;-50
2022/08/04 01:44:39;;;;;;;404.23;263.80;;;;;;;;;;4988087;28;20217;-50
2022/08/04 01:47:06;;;;;;;403.10;264.67;;;;;;;;;;4988972;28;20247;-50
2022/08/04 01:49:32;;;;;;;513.47;323.30;;;;;;;;;;4948694;28;1004895;-50
2022/08/04 01:51:59;;;;;;;429.70;280.83;;;;;;;;;;4995273;28;20303;-50
2022/08/04 01:54:25;;;;;;;431.90;277.92;;;;;;;;;;4989060;28;20220;-50
2022/08/04 01:56:52;;;;;;;436.15;280.65;;;;;;;;;;4987796;28;20225;-50
2022/08/04 01:59:19;;;;;;;422.98;275.45;;;;;;;;;;4987654;28;20236;-50
2022/08/04 02:01:45;;;;;;;431.85;271.98;;;;;;;;;;4988889;28;20253;-50
2022/08/04 02:04:15;;;;;;;411.08;271.15;;;;;;;;;;4994568;28;20178;-50
2022/08/04 02:06:56;;;;;;;413.30;260.45;;;;;;;;;;4991796;28;20181;-50
2022/08/04 02:09:29;;;;;;;447.15;285.35;;;;;;;;;;4988857;28;20224;-50
2022/08/04 02:12:01;;;;;;;450.08;282.90;;;;;;;;;;4986393;28;20428;-50
2022/08/04 02:14:40;;;;;;;434.92;274.05;;;;;;;;;;4993555;28;20212;-50
2022/08/04 02:17:13;;;;;;;422.33;273.35;;;;;;;;;;4993246;28;20220;-50
2022/08/04 02:19:53;;;;;;;478.02;307.98;;;;;;;;;;4982423;28;20331;-50
2022/08/04 02:22:21;;;;;;;435.35;277.67;;;;;;;;;;4989937;28;20377;-50
2022/08/04 02:24:52;;;;;;;446.90;284.05;;;;;;;;;;4984966;28;20181;-50
2022/08/04 02:27:22;;;;;;;411.48;266.02;;;;;;;;;;4988566;28;20217;-49
2022/08/04 02:29:54;;;;;;;398.98;257.42;;;;;;;;;;4989976;28;22804;-49
2022/08/04 02:32:27;;;;;;;439.65;277.88;;;;;;;;;;4988841;28;20225;-50
2022/08/04 02:34:53;;;;;;;408.67;261.33;;;;;;;;;;4988767;28;20228;-50
2022/08/04 02:37:20;;;;;;;484.83;296.58;;;;;;;;;;4987887;28;21176;-50
2022/08/04 02:39:47;;;;;;;392.00;253.98;;;;;;;;;;4989774;28;20190;-49
2022/08/04 02:42:14;;;;;;;415.42;264.38;;;;;;;;;;4987740;28;20220;-50
2022/08/04 02:44:41;;;;;;;408.10;257.73;;;;;;;;;;4984557;28;20212;-50
2022/08/04 02:47:07;;;;;;;389.98;242.00;;;;;;;;;;4994769;28;20739;-50
2022/08/04 02:49:36;;;;;;;554.88;336.58;;;;;;;;;;4982558;28;20236;-50
2022/08/04 02:52:03;;;;;;;391.90;239.35;;;;;;;;;;4992347;28;20190;-50
2022/08/04 02:54:33;;;;;;;410.45;254.25;;;;;;;;;;4998627;28;21355;-50
2022/08/04 02:56:59;;;;;;;399.42;246.63;;;;;;;;;;4988869;28;20896;-50
2022/08/04 02:59:26;;;;;;;467.00;272.42;;;;;;;;;;4983972;28;20221;-50
2022/08/04 03:01:54;;;;;;;421.67;266.33;;;;;;;;;;4989152;28;20218;-50
2022/08/04 03:04:50;;;;;;;442.48;274.17;;;;;;;;;;4990934;28;20794;-50
2022/08/04 03:07:34;;;;;;;372.27;239.50;;;;;;;;;;4968007;28;20463;-50
2022/08/04 03:10:20;;;;;;;420.77;268.50;;;;;;;;;;4982515;28;20185;-49
2022/08/04 03:13:14;;;;;;;411.65;259.63;;;;;;;;;;4982728;28;21134;-49
2022/08/04 03:15:59;;;;;;;468.08;284.35;;;;;;;;;;4981359;28;20225;-50
2022/08/04 03:18:50;;;;;;;404.17;250.85;;;;;;;;;;4980718;28;20764;-49
2022/08/04 03:21:19;;;;;;;475.35;286.27;;;;;;;;;;4979125;28;20224;-50
2022/08/04 03:24:05;;;;;;;437.95;275.45;;;;;;;;;;4985758;28;20558;-49
2022/08/04 03:26:54;;;;;;;464.98;278.08;;;;;;;;;;4988911;28;20212;-50
2022/08/04 03:29:38;;;;;;;378.67;238.32;;;;;;;;;;4995220;28;20673;-49
2022/08/04 03:32:23;;;;;;;415.90;249.32;;;;;;;;;;4991382;28;20313;-50
2022/08/04 03:34:49;;;;;;;456.80;268.30;;;;;;;;;;4996013;28;20714;-50
2022/08/04 03:37:29;;;;;;;444.30;262.77;;;;;;;;;;4983112;28;20477;-50
2022/08/04 03:40:01;;;;;;;407.42;244.23;;;;;;;;;;4998442;28;20341;-49
2022/08/04 03:42:27;;;;;;;402.00;237.90;;;;;;;;;;4994653;28;20228;-49
2022/08/04 03:45:05;;;;;;;432.88;259.45;;;;;;;;;;4991083;28;20213;-49
2022/08/04 03:47:37;;;;;;;520.80;298.55;;;;;;;;;;4981353;28;21060;-49
2022/08/04 03:50:22;;;;;;;473.10;273.20;;;;;;;;;;4986846;28;20235;-50
2022/08/04 03:53:16;;;;;;;424.98;250.20;;;;;;;;;;4992711;28;20217;-50
2022/08/04 03:55:46;;;;;;;450.17;265.35;;;;;;;;;;4984495;28;20322;-50
2022/08/04 03:58:30;;;;;;;379.75;237.38;;;;;;;;;;4996277;28;20268;-49
2022/08/04 04:01:08;;;;;;;396.70;238.80;;;;;;;;;;4986839;28;20515;-50
2022/08/04 04:03:49;;;;;;;431.25;255.88;;;;;;;;;;4990509;28;20208;-49
2022/08/04 04:06:36;;;;;;;456.45;262.25;;;;;;;;;;4988309;28;20221;-50
2022/08/04 04:09:12;;;;;;;395.13;235.95;;;;;;;;;;4983063;28;20229;-50
2022/08/04 04:11:50;;;;;;;477.65;274.02;;;;;;;;;;4978764;28;20215;-50
2022/08/04 04:14:25;;;;;;;424.08;250.73;;;;;;;;;;4990672;28;20550;-50
2022/08/04 04:17:07;;;;;;;425.02;248.45;;;;;;;;;;4984814;28;20692;-50
2022/08/04 04:19:44;;;;;;;416.77;243.98;;;;;;;;;;4994520;28;20511;-50
2022/08/04 04:22:26;;;;;;;393.30;235.82;;;;;;;;;;4984377;28;20262;-49
2022/08/04 04:24:51;;;;;;;446.23;256.33;;;;;;;;;;4991949;28;20347;-50
2022/08/04 04:27:26;;;;;;;438.70;260.45;;;;;;;;;;4982195;28;20228;-50
2022/08/04 04:30:06;;;;;;;433.17;253.98;;;;;;;;;;4988256;28;20224;-49
2022/08/04 04:32:32;;;;;;;433.00;252.23;;;;;;;;;;4986350;28;20231;-50
2022/08/04 04:35:17;;;;;;;404.65;242.02;;;;;;;;;;4991804;28;20296;-50
2022/08/04 04:37:51;;;;;;;461.73;267.08;;;;;;;;;;4994231;28;20546;-50
2022/08/04 04:40:21;;;;;;;515.58;301.63;;;;;;;;;;4991622;28;20539;-50
2022/08/04 04:43:05;;;;;;;392.80;235.68;;;;;;;;;;4986642;28;20234;-49
2022/08/04 04:45:41;;;;;;;474.08;270.98;;;;;;;;;;4985779;28;20225;-50
2022/08/04 04:48:08;;;;;;;395.10;244.32;;;;;;;;;;4983661;28;20729;-50
2022/08/04 04:50:52;;;;;;;454.83;270.08;;;;;;;;;;4985724;28;20320;-50
2022/08/04 04:53:32;;;;;;;424.08;248.48;;;;;;;;;;4992114;28;20227;-50
2022/08/04 04:56:14;;;;;;;380.17;225.15;;;;;;;;;;4983736;28;20221;-49
2022/08/04 04:58:40;;;;;;;409.88;240.25;;;;;;;;;;4991373;28;20542;-49
2022/08/04 05:01:06;;;;;;;394.10;234.23;;;;;;;;;;4987997;28;20188;-49
2022/08/04 05:03:32;;;;;;;467.83;273.13;;;;;;;;;;4991709;28;20657;-49
2022/08/04 05:06:01;;;;;;;402.55;238.77;;;;;;;;;;4995374;28;20263;-49
2022/08/04 05:08:50;;;;;;;384.58;230.73;;;;;;;;;;4993462;28;20236;-51
2022/08/04 05:11:41;;;;;;;399.55;236.50;;;;;;;;;;5002423;28;20239;-51
2022/08/04 05:14:25;;;;;;;406.27;254.50;;;;;;;;;;5001387;28;20221;-51
2022/08/04 05:16:55;;;;;;;424.27;258.42;;;;;;;;;;4989205;28;20241;-51
2022/08/04 05:19:20;;;;;;;424.92;252.90;;;;;;;;;;4993005;28;20221;-50
2022/08/04 05:21:49;;;;;;;401.98;239.52;;;;;;;;;;4992105;28;20846;-50
2022/08/04 05:24:18;;;;;;;434.02;258.10;;;;;;;;;;4998156;28;20217;-50
2022/08/04 05:26:46;;;;;;;431.15;254.38;;;;;;;;;;4975439;28;20220;-50
2022/08/04 05:29:25;;;;;;;390.92;239.88;;;;;;;;;;4979546;28;20229;-51
2022/08/04 05:31:52;;;;;;;412.55;253.30;;;;;;;;;;4985330;28;20500;-50
2022/08/04 05:34:21;;;;;;;390.52;239.75;;;;;;;;;;4997016;28;20183;-50
2022/08/04 05:36:49;;;;;;;427.08;259.17;;;;;;;;;;4989286;28;20204;-50
2022/08/04 05:39:18;;;;;;;464.40;274.38;;;;;;;;;;4987144;28;20660;-50
2022/08/04 05:41:44;;;;;;;407.15;245.13;;;;;;;;;;4993835;28;20479;-50
2022/08/04 05:44:11;;;;;;;467.85;283.95;;;;;;;;;;4989391;28;20221;-50
2022/08/04 05:46:37;;;;;;;472.83;291.10;;;;;;;;;;4986099;28;20228;-50
2022/08/04 05:49:04;;;;;;;407.02;246.60;;;;;;;;;;4991722;28;20196;-48
2022/08/04 05:51:31;;;;;;;484.83;310.60;;;;;;;;;;4987174;28;20189;-49
2022/08/04 05:53:58;;;;;;;395.92;260.15;;;;;;;;;;4984220;28;20672;-49
2022/08/04 05:56:24;;;;;;;428.70;268.95;;;;;;;;;;4996977;28;20220;-49
2022/08/04 05:58:51;;;;;;;479.27;298.92;;;;;;;;;;4983211;28;20491;-49
2022/08/04 06:01:18;;;;;;;493.42;292.05;;;;;;;;;;4968920;28;20514;-49
2022/08/04 06:03:46;;;;;;;484.05;296.42;;;;;;;;;;4986072;28;20185;-49
2022/08/04 06:06:13;;;;;;;513.50;308.80;;;;;;;;;;4978375;28;20228;-49
2022/08/04 06:08:39;;;;;;;425.48;270.65;;;;;;;;;;4988857;28;20224;-49
2022/08/04 06:11:07;;;;;;;399.95;261.38;;;;;;;;;;5000509;28;20704;-49
2022/08/04 06:13:39;;;;;;;560.33;344.52;;;;;;;;;;4994687;28;20222;-49
2022/08/04 06:16:07;;;;;;;439.10;279.50;;;;;;;;;;4999803;28;20177;-49
2022/08/04 06:18:35;;;;;;;385.40;247.18;;;;;;;;;;4996607;28;20216;-49
2022/08/04 06:21:03;;;;;;;421.08;277.13;;;;;;;;;;4989139;28;20602;-48
2022/08/04 06:23:30;;;;;;;428.70;283.25;;;;;;;;;;4993523;28;20672;-47
2022/08/04 06:25:58;;;;;;;426.33;287.77;;;;;;;;;;4995308;28;20282;-48
2022/08/04 06:28:24;;;;;;;400.67;267.35;;;;;;;;;;4987852;28;20233;-49
2022/08/04 06:30:51;;;;;;;393.75;254.18;;;;;;;;;;4999634;28;20201;-49
2022/08/04 06:33:32;;;;;;;461.75;298.90;;;;;;;;;;5001012;28;20231;-49
2022/08/04 06:35:59;;;;;;;423.30;290.63;;;;;;;;;;4998752;28;20917;-49
2022/08/04 06:38:27;;;;;;;402.20;268.00;;;;;;;;;;4993105;28;20449;-49
2022/08/04 06:40:53;;;;;;;407.98;274.45;;;;;;;;;;4995134;28;20225;-49
2022/08/04 06:43:19;;;;;;;447.33;276.90;;;;;;;;;;4984184;28;20209;-49
2022/08/04 06:45:46;;;;;;;514.58;313.55;;;;;;;;;;4977593;28;20216;-48
2022/08/04 06:48:14;;;;;;;472.42;303.75;;;;;;;;;;4986998;28;20233;-47
2022/08/04 06:50:40;;;;;;;511.20;335.02;;;;;;;;;;4991179;28;20248;-48
2022/08/04 06:53:07;;;;;;;469.77;312.52;;;;;;;;;;4981686;28;20237;-48
2022/08/04 06:55:33;;;;;;;397.35;277.05;;;;;;;;;;4993418;28;20233;-48
2022/08/04 06:58:00;;;;;;;418.08;293.70;;;;;;;;;;4975444;28;20205;-47
2022/08/04 07:00:27;;;;;;;453.25;304.70;;;;;;;;;;4973495;28;20593;-47
2022/08/04 07:02:53;;;;;;;459.33;309.25;;;;;;;;;;4986854;28;20291;-48
2022/08/04 07:05:19;;;;;;;432.02;295.83;;;;;;;;;;4976357;28;20293;-47
2022/08/04 07:07:45;;;;;;;499.15;331.77;;;;;;;;;;4984737;28;20224;-48
2022/08/04 07:10:12;;;;;;;511.02;334.05;;;;;;;;;;4979930;28;20201;-47
2022/08/04 07:12:38;;;;;;;475.08;325.30;;;;;;;;;;4982215;28;20472;-51
2022/08/04 07:15:05;;;;;;;478.52;326.85;;;;;;;;;;4977166;28;20224;-50
2022/08/04 07:17:31;;;;;;;520.50;341.15;;;;;;;;;;4972015;28;20236;-50
2022/08/04 07:19:57;;;;;;;485.30;325.45;;;;;;;;;;4978876;28;20232;-50
2022/08/04 07:22:25;;;;;;;461.98;313.48;;;;;;;;;;4973109;28;20966;-50
2022/08/04 07:24:54;;;;;;;537.50;354.15;;;;;;;;;;4987727;28;20921;-50
2022/08/04 07:27:20;;;;;;;471.05;326.35;;;;;;;;;;4983688;28;20775;-50
2022/08/04 07:29:46;;;;;;;547.95;355.95;;;;;;;;;;4977143;28;20232;-50
2022/08/04 07:32:13;;;;;;;416.35;303.58;;;;;;;;;;4974688;28;20225;-50
2022/08/04 07:34:40;;;;;;;417.92;290.17;;;;;;;;;;4983819;28;20295;-50
2022/08/04 07:37:06;;;;;;;430.17;297.27;;;;;;;;;;4984289;28;20201;-50
2022/08/04 07:39:32;;;;;;;480.80;323.42;;;;;;;;;;4989308;28;20786;-50
2022/08/04 07:41:59;;;;;;;479.60;323.40;;;;;;;;;;4972260;28;20643;-50
2022/08/04 07:44:26;;;;;;;473.77;319.20;;;;;;;;;;4981127;28;22404;-50
2022/08/04 07:46:52;;;;;;;475.75;324.55;;;;;;;;;;4977708;28;20681;-50
2022/08/04 07:49:19;;;;;;;462.85;320.60;;;;;;;;;;4971908;28;20207;-50
2022/08/04 07:51:45;;;;;;;529.08;356.02;;;;;;;;;;4976053;28;20208;-50
2022/08/04 07:54:12;;;;;;;455.83;315.70;;;;;;;;;;4987846;28;20244;-50
2022/08/04 07:56:39;;;;;;;481.40;331.20;;;;;;;;;;4981650;28;20224;-50
2022/08/04 07:59:05;;;;;;;466.38;324.02;;;;;;;;;;4972313;28;20934;-50
2022/08/04 08:01:32;;;;;;;459.00;316.45;;;;;;;;;;4975581;28;20904;-50
2022/08/04 08:03:59;;;;;;;508.65;348.52;;;;;;;;;;4981682;28;20717;-50
2022/08/04 08:06:28;;;;;;;478.88;336.83;;;;;;;;;;4983075;28;20220;-50
2022/08/04 08:08:54;;;;;;;423.67;302.90;;;;;;;;;;4992976;28;20217;-50
2022/08/04 08:11:20;;;;;;;504.17;344.05;;;;;;;;;;4990357;28;20767;-50
2022/08/04 08:13:46;;;;;;;477.75;337.85;;;;;;;;;;4983038;28;20229;-50
2022/08/04 08:16:12;;;;;;;479.25;347.85;;;;;;;;;;4985911;28;20255;-51
2022/08/04 08:18:38;;;;;;;461.23;334.05;;;;;;;;;;4986556;28;20204;-50
2022/08/04 08:21:04;;;;;;;437.42;317.17;;;;;;;;;;4991669;28;20653;-51
2022/08/04 08:23:31;;;;;;;492.85;352.27;;;;;;;;;;4988217;28;20240;-50
2022/08/04 08:25:58;;;;;;;481.98;353.25;;;;;;;;;;4989993;28;20220;-51
2022/08/04 08:28:24;;;;;;;565.80;390.73;;;;;;;;;;4988007;28;20242;-50
2022/08/04 08:30:50;;;;;;;483.90;350.67;;;;;;;;;;4977382;28;20207;-51
2022/08/04 08:33:17;;;;;;;405.48;306.65;;;;;;;;;;4986457;28;20250;-50
2022/08/04 08:35:48;;;;;;;532.47;370.83;;;;;;;;;;4986268;28;20233;-51
2022/08/04 08:38:15;;;;;;;422.90;335.13;;;;;;;;;;4994155;28;20239;-50
2022/08/04 08:40:48;;;;;;;447.65;339.17;;;;;;;;;;4994765;28;20217;-51
2022/08/04 08:43:52;;;;;;;405.42;322.02;;;;;;;;;;4994040;28;20188;-51
2022/08/04 08:46:47;;;;;;;429.02;337.80;;;;;;;;;;4942551;28;20210;-51
2022/08/04 08:49:24;;;;;;;468.17;372.40;;;;;;;;;;4921195;28;20223;-50
2022/08/04 08:52:05;;;;;;;437.42;360.52;;;;;;;;;;4970538;28;20204;-51
2022/08/04 08:54:50;;;;;;;510.90;378.90;;;;;;;;;;4995941;28;20232;-51
2022/08/04 08:57:29;;;;;;;411.10;338.65;;;;;;;;;;4991120;28;20228;-51
2022/08/04 09:00:04;;;;;;;422.30;342.80;;;;;;;;;;4990922;28;20243;-51
2022/08/04 09:02:41;;;;;;;449.77;358.23;;;;;;;;;;4985206;28;20215;-50
2022/08/04 09:05:07;;;;;;;467.92;358.75;;;;;;;;;;4987074;28;20220;-51
2022/08/04 09:07:51;;;;;;;420.95;321.67;;;;;;;;;;4989398;28;20225;-51
2022/08/04 09:10:35;;;;;;;455.55;352.63;;;;;;;;;;4993622;28;20687;-51
2022/08/04 09:13:33;;;;;;;419.55;339.40;;;;;;;;;;5000729;28;20197;-51
2022/08/04 09:16:08;;;;;;;473.67;361.92;;;;;;;;;;4952600;28;20529;-51
2022/08/04 09:18:37;;;;;;;393.30;318.88;;;;;;;;;;5002539;28;20205;-51
2022/08/04 09:21:05;;;;;;;454.98;356.90;;;;;;;;;;4996067;28;20741;-50
2022/08/04 09:23:50;;;;;;;477.35;362.55;;;;;;;;;;4998553;28;20216;-51
2022/08/04 09:26:39;;;;;;;392.45;331.25;;;;;;;;;;5004525;28;20227;-51
2022/08/04 09:29:05;;;;;;;392.27;325.00;;;;;;;;;;4980607;28;20221;-51
2022/08/04 09:31:34;;;;;;;426.00;343.65;;;;;;;;;;5005652;28;20589;-51
2022/08/04 09:34:09;;;;;;;409.00;342.60;;;;;;;;;;4999261;28;20177;-50
2022/08/04 09:36:41;;;;;;;422.35;345.48;;;;;;;;;;4996326;28;20626;-50
2022/08/04 09:39:13;;;;;;;501.15;387.48;;;;;;;;;;4990421;28;20439;-51
2022/08/04 09:41:55;;;;;;;449.05;365.95;;;;;;;;;;4990441;28;20233;-50
2022/08/04 09:44:44;;;;;;;436.10;358.38;;;;;;;;;;4990967;28;20232;-51
2022/08/04 09:47:48;;;;;;;421.00;352.65;;;;;;;;;;4981602;28;20233;-51
2022/08/04 09:50:20;;;;;;;460.88;382.23;;;;;;;;;;4910770;29;20243;-51
2022/08/04 09:52:55;;;;;;;429.67;356.98;;;;;;;;;;4925759;29;20224;-51
2022/08/04 09:55:25;;;;;;;466.08;374.33;;;;;;;;;;4963306;28;20591;-51
2022/08/04 09:58:01;;;;;;;406.83;351.92;;;;;;;;;;5006376;28;20209;-51
2022/08/04 10:00:33;;;;;;;461.27;375.42;;;;;;;;;;4988031;28;20308;-51
2022/08/04 10:03:01;;;;;;;447.90;373.17;;;;;;;;;;4987983;28;20327;-51
2022/08/04 10:05:44;;;;;;;429.52;382.88;;;;;;;;;;4993259;28;20220;-52
2022/08/04 10:08:38;;;;;;;434.15;386.95;;;;;;;;;;4997058;28;20244;-51
2022/08/04 10:11:27;;;;;;;504.50;425.15;;;;;;;;;;4997749;28;20673;-51
2022/08/04 10:13:59;;;;;;;418.53;371.90;;;;;;;;;;5003864;28;20540;-51
2022/08/04 10:16:45;;;;;;;415.90;371.40;;;;;;;;;;4995744;28;20324;-52
2022/08/04 10:19:14;;;;;;;434.60;382.85;;;;;;;;;;4990566;28;20191;-51
2022/08/04 10:22:04;;;;;;;455.80;387.17;;;;;;;;;;4988092;28;20221;-53
2022/08/04 10:24:43;;;;;;;426.25;372.45;;;;;;;;;;4993565;28;20227;-51
2022/08/04 10:27:21;;;;;;;452.35;394.88;;;;;;;;;;4994161;28;20238;-51
2022/08/04 10:29:47;;;;;;;472.40;400.70;;;;;;;;;;4986539;28;20468;-51
2022/08/04 10:32:13;;;;;;;514.08;435.70;;;;;;;;;;4991301;28;20284;-52
2022/08/04 10:34:42;;;;;;;430.27;383.67;;;;;;;;;;4986683;28;20232;-52
2022/08/04 10:37:08;;;;;;;423.08;378.70;;;;;;;;;;4996044;28;20202;-50
2022/08/04 10:40:35;;;;;;;455.92;405.40;;;;;;;;;;4998062;28;20239;-52
2022/08/04 10:42:30;;;;;;;427.92;382.23;;;;;;;;;;4997034;28;20218;-50
2022/08/04 10:45:02;;;;;;;468.63;406.23;;;;;;;;;;4994900;28;20222;-52
2022/08/04 10:47:42;;;;;;;432.67;387.17;;;;;;;;;;4990624;28;20232;-51
2022/08/04 10:50:09;;;;;;;486.58;420.23;;;;;;;;;;4996476;28;20257;-52
2022/08/04 10:52:42;;;;;;;432.20;386.67;;;;;;;;;;4996846;28;20220;-52
2022/08/04 10:55:10;;;;;;;458.80;408.77;;;;;;;;;;5000646;28;20190;-52
2022/08/04 10:57:39;;;;;;;433.20;387.10;;;;;;;;;;4992489;28;20744;-51
2022/08/04 11:00:11;;;;;;;445.98;398.13;;;;;;;;;;4994908;28;20483;-51
2022/08/04 11:03:00;;;;;;;443.63;397.23;;;;;;;;;;4995787;28;20226;-51
2022/08/04 11:05:30;;;;;;;502.65;436.88;;;;;;;;;;4991491;28;20217;-51
2022/08/04 11:08:00;;;;;;;478.08;425.73;;;;;;;;;;4988743;28;20297;-52
2022/08/04 11:10:28;;;;;;;482.08;424.67;;;;;;;;;;4987473;28;20209;-52
2022/08/04 11:12:57;;;;;;;469.83;418.45;;;;;;;;;;4990291;28;20192;-52
2022/08/04 11:15:27;;;;;;;442.50;396.02;;;;;;;;;;4993820;28;20216;-52
2022/08/04 11:17:56;;;;;;;447.40;399.60;;;;;;;;;;4999029;28;20225;-52
2022/08/04 11:20:29;;;;;;;532.97;448.73;;;;;;;;;;4988021;28;20217;-51
2022/08/04 11:23:12;;;;;;;463.58;411.13;;;;;;;;;;4979714;28;20276;-52
2022/08/04 11:25:41;;;;;;;477.13;424.13;;;;;;;;;;4995272;28;20704;-53
2022/08/04 11:28:10;;;;;;;465.83;415.52;;;;;;;;;;4987094;28;20384;-52
2022/08/04 11:30:56;;;;;;;490.55;436.45;;;;;;;;;;4978768;28;20301;-51
2022/08/04 11:33:35;;;;;;;479.98;424.77;;;;;;;;;;4983270;28;20610;-51
2022/08/04 11:36:20;;;;;;;471.15;421.15;;;;;;;;;;4982688;28;20224;-52
2022/08/04 11:39:04;;;;;;;473.27;421.77;;;;;;;;;;4993125;28;20291;-51
2022/08/04 11:41:52;;;;;;;542.05;461.85;;;;;;;;;;4984663;28;20225;-53
2022/08/04 11:44:22;;;;;;;480.02;427.67;;;;;;;;;;4986776;28;20294;-52
2022/08/04 11:46:50;;;;;;;474.77;423.13;;;;;;;;;;4983117;28;20224;-51
2022/08/04 11:49:16;;;;;;;458.85;411.20;;;;;;;;;;4982641;28;20521;-52
2022/08/04 11:51:43;;;;;;;497.55;446.38;;;;;;;;;;4988562;28;20188;-52
2022/08/04 11:54:11;;;;;;;453.85;408.80;;;;;;;;;;4998461;28;20289;-51
2022/08/04 11:56:37;;;;;;;494.63;440.92;;;;;;;;;;4990129;28;20594;-52
2022/08/04 11:59:03;;;;;;;484.92;433.75;;;;;;;;;;4993689;28;20225;-53
2022/08/04 12:01:35;;;;;;;497.37;443.90;;;;;;;;;;4984558;28;20233;-53
2022/08/04 12:04:00;;;;;;;470.63;422.58;;;;;;;;;;4980768;28;20206;-53
2022/08/04 12:06:44;;;;;;;512.70;457.13;;;;;;;;;;4983006;28;20471;-52
2022/08/04 12:09:28;;;;;;;485.27;435.08;;;;;;;;;;4989526;28;20299;-52
2022/08/04 12:11:54;;;;;;;519.35;462.55;;;;;;;;;;4971913;28;20217;-52
2022/08/04 12:14:26;;;;;;;524.65;468.73;;;;;;;;;;4985413;28;20531;-53
2022/08/04 12:17:00;;;;;;;478.63;430.60;;;;;;;;;;4988546;28;20751;-52
2022/08/04 12:19:29;;;;;;;495.07;445.37;;;;;;;;;;4990221;28;20681;-52
2022/08/04 12:21:58;;;;;;;488.38;438.67;;;;;;;;;;4991889;28;20188;-52
2022/08/04 12:24:31;;;;;;;512.60;458.58;;;;;;;;;;4994200;28;20197;-51
2022/08/04 12:26:59;;;;;;;469.55;423.42;;;;;;;;;;5000723;28;20224;-51
2022/08/04 12:29:27;;;;;;;483.10;434.95;;;;;;;;;;4994219;28;20248;-53
2022/08/04 12:32:17;;;;;;;497.02;446.23;;;;;;;;;;4989240;28;20496;-53
2022/08/04 12:34:47;;;;;;;476.80;428.30;;;;;;;;;;4987870;28;20221;-52
2022/08/04 12:37:18;;;;;;;523.35;466.98;;;;;;;;;;4989209;28;20213;-52
2022/08/04 12:39:48;;;;;;;466.05;420.40;;;;;;;;;;4992361;28;20570;-51
2022/08/04 12:42:14;;;;;;;553.08;491.17;;;;;;;;;;4988748;28;20299;-52
2022/08/04 12:44:40;;;;;;;523.42;469.58;;;;;;;;;;4985288;28;20225;-51
2022/08/04 12:47:08;;;;;;;501.98;451.23;;;;;;;;;;4986199;28;20228;-53
2022/08/04 12:49:35;;;;;;;482.60;434.75;;;;;;;;;;4984138;28;20723;-51
2022/08/04 12:52:04;;;;;;;488.15;439.77;;;;;;;;;;4985595;28;20181;-51
2022/08/04 12:54:32;;;;;;;497.65;448.05;;;;;;;;;;4990314;28;20276;-52
2022/08/04 12:56:58;;;;;;;468.02;423.10;;;;;;;;;;4990180;28;20503;-51
2022/08/04 12:59:24;;;;;;;514.42;460.77;;;;;;;;;;4994442;28;20271;-51
2022/08/04 13:01:51;;;;;;;475.75;429.70;;;;;;;;;;5002987;28;20217;-52
2022/08/04 13:04:25;;;;;;;482.10;433.35;;;;;;;;;;4995651;28;20209;-51
2022/08/04 13:06:53;;;;;;;473.25;427.08;;;;;;;;;;5001990;28;20199;-50
2022/08/04 13:09:20;;;;;;;487.65;438.95;;;;;;;;;;4995674;28;20213;-52
2022/08/04 13:11:58;;;;;;;474.08;428.50;;;;;;;;;;4999759;28;20218;-51
2022/08/04 13:14:27;;;;;;;485.20;438.77;;;;;;;;;;5001864;28;20224;-52
2022/08/04 13:17:00;;;;;;;479.23;434.63;;;;;;;;;;4998253;28;20320;-51
2022/08/04 13:19:26;;;;;;;493.38;447.25;;;;;;;;;;5003974;28;20221;-52
2022/08/04 13:21:53;;;;;;;505.52;459.20;;;;;;;;;;5000805;28;20177;-52
2022/08/04 13:24:20;;;;;;;515.75;465.58;;;;;;;;;;4993444;28;20233;-53
2022/08/04 13:26:48;;;;;;;507.80;460.85;;;;;;;;;;5001821;28;20221;-51
2022/08/04 13:29:15;;;;;;;500.80;454.65;;;;;;;;;;4999143;28;20518;-52
2022/08/04 13:31:43;;;;;;;493.50;448.80;;;;;;;;;;5003353;28;20523;-51
2022/08/04 13:34:10;;;;;;;494.70;448.58;;;;;;;;;;5000104;28;20296;-51
2022/08/04 13:36:37;;;;;;;491.10;446.33;;;;;;;;;;5000285;28;20177;-52
2022/08/04 13:39:07;;;;;;;507.73;460.40;;;;;;;;;;5006884;28;20212;-53
2022/08/04 13:41:34;;;;;;;473.73;430.85;;;;;;;;;;4999359;28;20294;-51
2022/08/04 13:44:01;;;;;;;488.65;444.83;;;;;;;;;;5002558;28;20244;-52
2022/08/04 13:46:36;;;;;;;493.23;446.08;;;;;;;;;;5001671;28;20312;-52
2022/08/04 13:49:06;;;;;;;470.92;429.52;;;;;;;;;;5000605;28;20484;-51
2022/08/04 13:51:33;;;;;;;491.65;444.80;;;;;;;;;;5000163;28;20193;-53
2022/08/04 13:54:01;;;;;;;500.95;453.85;;;;;;;;;;5000849;28;20598;-50
2022/08/04 13:56:33;;;;;;;510.13;461.00;;;;;;;;;;5003606;28;20542;-52
2022/08/04 13:59:00;;;;;;;519.42;472.48;;;;;;;;;;5003269;28;20535;-52
2022/08/04 14:01:27;;;;;;;516.58;469.63;;;;;;;;;;5002427;28;20225;-51
2022/08/04 14:04:16;;;;;;;535.40;483.80;;;;;;;;;;4986504;28;20888;-51
2022/08/04 14:07:03;;;;;;;537.15;483.58;;;;;;;;;;4979783;28;20212;-51
2022/08/04 14:09:30;;;;;;;539.80;488.25;;;;;;;;;;4984990;28;20495;-51
2022/08/04 14:12:04;;;;;;;548.05;492.70;;;;;;;;;;4990429;28;20556;-51
2022/08/04 14:14:31;;;;;;;552.20;497.00;;;;;;;;;;4981593;28;20221;-53
2022/08/04 14:16:57;;;;;;;567.10;510.45;;;;;;;;;;4985957;28;20239;-52
2022/08/04 14:19:23;;;;;;;567.08;511.67;;;;;;;;;;4983898;28;20769;-52